sensor_id;sensor_type;location;lat;lon;timestamp;pressure;altitude;pressure_sealevel;temperature;humidity
54592;BME280;40488;48.558;18.150;2023-03-19T00:01:02;99868.78;;;4.70;64.31
54592;BME280;40488;48.558;18.150;2023-03-19T00:03:30;99871.34;;;4.73;64.39
54592;BME280;40488;48.558;18.150;2023-03-19T00:05:59;99866.28;;;4.71;64.39
54592;BME280;40488;48.558;18.150;2023-03-19T00:08:28;99865.94;;;4.58;64.57
54592;BME280;40488;48.558;18.150;2023-03-19T00:10:58;99869.19;;;4.54;65.20
54592;BME280;40488;48.558;18.150;2023-03-19T00:13:26;99871.59;;;4.49;65.18
54592;BME280;40488;48.558;18.150;2023-03-19T00:15:55;99876.50;;;4.43;65.34
54592;BME280;40488;48.558;18.150;2023-03-19T00:18:23;99882.47;;;4.47;65.60
54592;BME280;40488;48.558;18.150;2023-03-19T00:20:52;99875.78;;;4.49;65.88
54592;BME280;40488;48.558;18.150;2023-03-19T00:23:20;99878.06;;;4.40;65.83
54592;BME280;40488;48.558;18.150;2023-03-19T00:25:49;99879.13;;;4.48;65.94
54592;BME280;40488;48.558;18.150;2023-03-19T00:28:19;99884.28;;;4.51;65.39
54592;BME280;40488;48.558;18.150;2023-03-19T00:30:48;99880.78;;;4.46;65.78
54592;BME280;40488;48.558;18.150;2023-03-19T00:33:16;99885.81;;;4.46;66.10
54592;BME280;40488;48.558;18.150;2023-03-19T00:35:47;99880.03;;;4.50;65.93
54592;BME280;40488;48.558;18.150;2023-03-19T00:38:15;99874.88;;;4.47;66.19
54592;BME280;40488;48.558;18.150;2023-03-19T00:40:44;99864.91;;;4.51;65.66
54592;BME280;40488;48.558;18.150;2023-03-19T00:43:14;99857.16;;;4.44;66.31
54592;BME280;40488;48.558;18.150;2023-03-19T00:45:44;99857.94;;;4.43;66.07
54592;BME280;40488;48.558;18.150;2023-03-19T00:48:13;99856.19;;;4.40;66.29
54592;BME280;40488;48.558;18.150;2023-03-19T00:50:42;99854.66;;;4.45;65.93
54592;BME280;40488;48.558;18.150;2023-03-19T00:53:10;99862.25;;;4.47;66.39
54592;BME280;40488;48.558;18.150;2023-03-19T00:55:38;99860.47;;;4.43;66.32
54592;BME280;40488;48.558;18.150;2023-03-19T00:58:07;99853.63;;;4.39;66.14
54592;BME280;40488;48.558;18.150;2023-03-19T01:00:36;99841.72;;;4.35;66.82
54592;BME280;40488;48.558;18.150;2023-03-19T01:03:06;99855.88;;;4.28;66.38
54592;BME280;40488;48.558;18.150;2023-03-19T01:05:34;99852.34;;;4.23;66.72
54592;BME280;40488;48.558;18.150;2023-03-19T01:08:02;99845.53;;;4.19;66.94
54592;BME280;40488;48.558;18.150;2023-03-19T01:10:31;99850.16;;;4.05;66.47
54592;BME280;40488;48.558;18.150;2023-03-19T01:13:01;99845.97;;;4.04;67.35
54592;BME280;40488;48.558;18.150;2023-03-19T01:15:33;99839.94;;;4.01;67.73
54592;BME280;40488;48.558;18.150;2023-03-19T01:18:02;99847.75;;;4.08;68.01
54592;BME280;40488;48.558;18.150;2023-03-19T01:20:32;99834.47;;;4.16;68.02
54592;BME280;40488;48.558;18.150;2023-03-19T01:23:02;99836.44;;;4.26;67.88
54592;BME280;40488;48.558;18.150;2023-03-19T01:25:31;99841.91;;;4.41;67.51
54592;BME280;40488;48.558;18.150;2023-03-19T01:28:01;99841.16;;;4.45;67.39
54592;BME280;40488;48.558;18.150;2023-03-19T01:30:30;99833.44;;;4.39;67.16
54592;BME280;40488;48.558;18.150;2023-03-19T01:33:10;99838.84;;;4.54;66.65
54592;BME280;40488;48.558;18.150;2023-03-19T01:35:51;99832.31;;;4.62;66.48
54592;BME280;40488;48.558;18.150;2023-03-19T01:38:24;99839.25;;;4.69;66.33
54592;BME280;40488;48.558;18.150;2023-03-19T01:40:58;99836.22;;;4.82;66.68
54592;BME280;40488;48.558;18.150;2023-03-19T01:43:28;99824.69;;;4.93;66.37
54592;BME280;40488;48.558;18.150;2023-03-19T01:46:11;99829.72;;;5.29;66.22
54592;BME280;40488;48.558;18.150;2023-03-19T01:48:53;99824.50;;;5.99;64.28
54592;BME280;40488;48.558;18.150;2023-03-19T01:51:25;99824.72;;;6.09;63.32
54592;BME280;40488;48.558;18.150;2023-03-19T01:54:07;99827.69;;;5.90;63.06
54592;BME280;40488;48.558;18.150;2023-03-19T01:56:46;99834.88;;;5.71;63.05
54592;BME280;40488;48.558;18.150;2023-03-19T01:59:24;99830.25;;;5.52;63.40
54592;BME280;40488;48.558;18.150;2023-03-19T02:02:05;99820.47;;;5.29;63.52
54592;BME280;40488;48.558;18.150;2023-03-19T02:04:34;99816.78;;;5.15;63.91
54592;BME280;40488;48.558;18.150;2023-03-19T02:07:05;99813.00;;;4.98;64.09
54592;BME280;40488;48.558;18.150;2023-03-19T02:09:35;99819.44;;;4.86;64.60
54592;BME280;40488;48.558;18.150;2023-03-19T02:12:04;99813.41;;;4.81;64.50
54592;BME280;40488;48.558;18.150;2023-03-19T02:14:33;99813.88;;;4.66;65.29
54592;BME280;40488;48.558;18.150;2023-03-19T02:17:02;99816.31;;;4.61;65.44
54592;BME280;40488;48.558;18.150;2023-03-19T02:19:31;99823.84;;;4.60;65.98
54592;BME280;40488;48.558;18.150;2023-03-19T02:22:02;99822.44;;;4.71;65.39
54592;BME280;40488;48.558;18.150;2023-03-19T02:24:34;99808.53;;;4.88;64.90
54592;BME280;40488;48.558;18.150;2023-03-19T02:27:10;99808.44;;;5.19;65.06
54592;BME280;40488;48.558;18.150;2023-03-19T02:29:44;99815.34;;;5.26;64.25
54592;BME280;40488;48.558;18.150;2023-03-19T02:32:15;99808.78;;;5.34;64.41
54592;BME280;40488;48.558;18.150;2023-03-19T02:34:44;99814.47;;;6.05;63.36
54592;BME280;40488;48.558;18.150;2023-03-19T02:37:13;99810.25;;;6.49;62.04
54592;BME280;40488;48.558;18.150;2023-03-19T02:39:51;99810.94;;;6.40;61.51
54592;BME280;40488;48.558;18.150;2023-03-19T02:42:24;99815.38;;;6.07;61.68
54592;BME280;40488;48.558;18.150;2023-03-19T02:44:55;99818.75;;;5.66;61.80
54592;BME280;40488;48.558;18.150;2023-03-19T02:47:24;99815.69;;;5.41;62.34
54592;BME280;40488;48.558;18.150;2023-03-19T02:49:53;99806.88;;;5.24;62.76
54592;BME280;40488;48.558;18.150;2023-03-19T02:52:22;99817.47;;;5.10;63.29
54592;BME280;40488;48.558;18.150;2023-03-19T02:54:50;99819.47;;;4.87;63.58
54592;BME280;40488;48.558;18.150;2023-03-19T02:57:19;99827.56;;;4.72;63.91
54592;BME280;40488;48.558;18.150;2023-03-19T02:59:48;99806.97;;;4.59;64.18
54592;BME280;40488;48.558;18.150;2023-03-19T03:02:18;99825.00;;;4.40;65.06
54592;BME280;40488;48.558;18.150;2023-03-19T03:04:47;99823.00;;;4.27;65.67
54592;BME280;40488;48.558;18.150;2023-03-19T03:07:16;99831.47;;;4.29;66.04
54592;BME280;40488;48.558;18.150;2023-03-19T03:09:45;99826.97;;;4.19;65.62
54592;BME280;40488;48.558;18.150;2023-03-19T03:12:15;99811.53;;;4.08;66.19
54592;BME280;40488;48.558;18.150;2023-03-19T03:14:43;99820.28;;;3.89;66.20
54592;BME280;40488;48.558;18.150;2023-03-19T03:17:13;99819.72;;;3.99;67.21
54592;BME280;40488;48.558;18.150;2023-03-19T03:19:41;99822.00;;;3.90;67.21
54592;BME280;40488;48.558;18.150;2023-03-19T03:22:10;99813.59;;;3.91;67.35
54592;BME280;40488;48.558;18.150;2023-03-19T03:24:38;99808.63;;;3.94;67.64
54592;BME280;40488;48.558;18.150;2023-03-19T03:27:07;99820.50;;;3.98;67.76
54592;BME280;40488;48.558;18.150;2023-03-19T03:29:35;99827.28;;;3.99;67.14
54592;BME280;40488;48.558;18.150;2023-03-19T03:32:06;99825.53;;;3.97;66.84
54592;BME280;40488;48.558;18.150;2023-03-19T03:34:36;99820.28;;;3.89;66.91
54592;BME280;40488;48.558;18.150;2023-03-19T03:37:05;99817.50;;;3.80;67.62
54592;BME280;40488;48.558;18.150;2023-03-19T03:39:35;99823.00;;;3.67;68.05
54592;BME280;40488;48.558;18.150;2023-03-19T03:42:04;99820.34;;;3.63;68.20
54592;BME280;40488;48.558;18.150;2023-03-19T03:44:34;99819.53;;;3.64;68.19
54592;BME280;40488;48.558;18.150;2023-03-19T03:47:03;99816.25;;;3.66;68.05
54592;BME280;40488;48.558;18.150;2023-03-19T03:49:31;99817.81;;;3.63;67.76
54592;BME280;40488;48.558;18.150;2023-03-19T03:52:01;99816.81;;;3.58;67.89
54592;BME280;40488;48.558;18.150;2023-03-19T03:54:30;99820.97;;;3.56;67.92
54592;BME280;40488;48.558;18.150;2023-03-19T03:56:59;99818.38;;;3.53;68.10
54592;BME280;40488;48.558;18.150;2023-03-19T03:59:30;99814.19;;;3.53;68.24
54592;BME280;40488;48.558;18.150;2023-03-19T04:01:59;99815.44;;;3.39;68.76
54592;BME280;40488;48.558;18.150;2023-03-19T04:04:28;99806.97;;;3.37;68.40
54592;BME280;40488;48.558;18.150;2023-03-19T04:06:57;99805.31;;;3.37;68.86
54592;BME280;40488;48.558;18.150;2023-03-19T04:09:53;99817.06;;;3.37;68.36
54592;BME280;40488;48.558;18.150;2023-03-19T04:12:21;99817.81;;;3.34;68.63
54592;BME280;40488;48.558;18.150;2023-03-19T04:14:50;99821.94;;;3.31;68.66
54592;BME280;40488;48.558;18.150;2023-03-19T04:17:18;99825.38;;;3.33;68.52
54592;BME280;40488;48.558;18.150;2023-03-19T04:19:47;99821.06;;;3.30;69.09
54592;BME280;40488;48.558;18.150;2023-03-19T04:22:15;99820.13;;;3.27;69.05
54592;BME280;40488;48.558;18.150;2023-03-19T04:24:44;99818.22;;;3.20;69.29
54592;BME280;40488;48.558;18.150;2023-03-19T04:27:15;99829.13;;;3.19;69.38
54592;BME280;40488;48.558;18.150;2023-03-19T04:29:43;99819.22;;;3.25;69.59
54592;BME280;40488;48.558;18.150;2023-03-19T04:32:12;99820.13;;;3.27;69.69
54592;BME280;40488;48.558;18.150;2023-03-19T04:34:41;99831.72;;;3.22;69.86
54592;BME280;40488;48.558;18.150;2023-03-19T04:37:10;99818.41;;;3.26;69.91
54592;BME280;40488;48.558;18.150;2023-03-19T04:39:45;99824.13;;;3.20;69.97
54592;BME280;40488;48.558;18.150;2023-03-19T04:42:15;99829.94;;;3.18;70.25
54592;BME280;40488;48.558;18.150;2023-03-19T04:44:57;99838.50;;;3.23;70.75
54592;BME280;40488;48.558;18.150;2023-03-19T04:47:27;99828.50;;;3.26;69.96
54592;BME280;40488;48.558;18.150;2023-03-19T04:49:58;99839.28;;;3.22;69.87
54592;BME280;40488;48.558;18.150;2023-03-19T04:52:30;99836.09;;;3.27;70.12
54592;BME280;40488;48.558;18.150;2023-03-19T04:55:01;99837.06;;;3.31;69.86
54592;BME280;40488;48.558;18.150;2023-03-19T04:57:41;99840.19;;;3.24;70.30
54592;BME280;40488;48.558;18.150;2023-03-19T05:00:10;99838.88;;;3.35;70.44
54592;BME280;40488;48.558;18.150;2023-03-19T05:02:42;99843.72;;;3.29;69.88
54592;BME280;40488;48.558;18.150;2023-03-19T05:05:10;99842.13;;;3.31;69.98
54592;BME280;40488;48.558;18.150;2023-03-19T05:07:40;99844.63;;;3.31;70.46
54592;BME280;40488;48.558;18.150;2023-03-19T05:10:10;99835.47;;;3.34;69.87
54592;BME280;40488;48.558;18.150;2023-03-19T05:12:41;99843.09;;;3.36;69.70
54592;BME280;40488;48.558;18.150;2023-03-19T05:15:10;99851.50;;;3.36;69.60
54592;BME280;40488;48.558;18.150;2023-03-19T05:17:49;99855.69;;;3.36;70.13
54592;BME280;40488;48.558;18.150;2023-03-19T05:20:22;99853.34;;;3.41;69.43
54592;BME280;40488;48.558;18.150;2023-03-19T05:22:58;99849.31;;;3.47;69.62
54592;BME280;40488;48.558;18.150;2023-03-19T05:25:37;99857.78;;;3.49;69.98
54592;BME280;40488;48.558;18.150;2023-03-19T05:28:11;99856.16;;;3.51;69.78
54592;BME280;40488;48.558;18.150;2023-03-19T05:30:41;99858.06;;;3.58;69.46
54592;BME280;40488;48.558;18.150;2023-03-19T05:33:30;99859.16;;;3.66;70.14
54592;BME280;40488;48.558;18.150;2023-03-19T05:35:58;99864.31;;;3.69;69.75
54592;BME280;40488;48.558;18.150;2023-03-19T05:38:40;99856.88;;;3.75;70.05
54592;BME280;40488;48.558;18.150;2023-03-19T05:41:15;99861.28;;;3.81;69.27
54592;BME280;40488;48.558;18.150;2023-03-19T05:43:57;99849.69;;;3.89;69.71
54592;BME280;40488;48.558;18.150;2023-03-19T05:46:36;99853.34;;;3.98;69.75
54592;BME280;40488;48.558;18.150;2023-03-19T05:49:05;99846.03;;;4.07;69.69
54592;BME280;40488;48.558;18.150;2023-03-19T05:51:34;99847.91;;;4.15;69.13
54592;BME280;40488;48.558;18.150;2023-03-19T05:54:05;99844.91;;;4.28;68.82
54592;BME280;40488;48.558;18.150;2023-03-19T05:56:49;99858.69;;;4.39;69.25
54592;BME280;40488;48.558;18.150;2023-03-19T05:59:30;99855.84;;;4.59;68.89
54592;BME280;40488;48.558;18.150;2023-03-19T06:02:18;99847.88;;;4.77;68.66
54592;BME280;40488;48.558;18.150;2023-03-19T06:04:51;99853.31;;;4.92;68.48
54592;BME280;40488;48.558;18.150;2023-03-19T06:07:25;99846.16;;;5.10;68.19
54592;BME280;40488;48.558;18.150;2023-03-19T06:09:55;99850.69;;;5.23;67.53
54592;BME280;40488;48.558;18.150;2023-03-19T06:12:23;99846.63;;;5.30;67.77
54592;BME280;40488;48.558;18.150;2023-03-19T06:15:14;99844.31;;;5.40;67.59
54592;BME280;40488;48.558;18.150;2023-03-19T06:17:43;99845.44;;;5.52;67.14
54592;BME280;40488;48.558;18.150;2023-03-19T06:20:15;99845.63;;;5.61;67.14
54592;BME280;40488;48.558;18.150;2023-03-19T06:22:44;99852.53;;;5.68;66.94
54592;BME280;40488;48.558;18.150;2023-03-19T06:25:13;99846.69;;;5.72;66.88
54592;BME280;40488;48.558;18.150;2023-03-19T06:27:42;99858.84;;;5.85;67.02
54592;BME280;40488;48.558;18.150;2023-03-19T06:30:23;99855.88;;;6.04;66.86
54592;BME280;40488;48.558;18.150;2023-03-19T06:32:54;99856.09;;;6.16;66.64
54592;BME280;40488;48.558;18.150;2023-03-19T06:35:24;99860.94;;;6.47;66.68
54592;BME280;40488;48.558;18.150;2023-03-19T06:37:53;99864.88;;;6.80;65.96
54592;BME280;40488;48.558;18.150;2023-03-19T06:40:22;99866.06;;;7.00;65.59
54592;BME280;40488;48.558;18.150;2023-03-19T06:42:50;99855.50;;;7.26;65.42
54592;BME280;40488;48.558;18.150;2023-03-19T06:45:19;99856.75;;;7.54;64.29
54592;BME280;40488;48.558;18.150;2023-03-19T06:47:48;99859.53;;;7.71;63.88
54592;BME280;40488;48.558;18.150;2023-03-19T06:50:19;99860.56;;;7.85;63.03
54592;BME280;40488;48.558;18.150;2023-03-19T06:52:48;99858.19;;;7.98;61.82
54592;BME280;40488;48.558;18.150;2023-03-19T06:55:16;99853.28;;;8.12;60.72
54592;BME280;40488;48.558;18.150;2023-03-19T06:57:47;99857.72;;;8.27;59.89
54592;BME280;40488;48.558;18.150;2023-03-19T07:00:17;99849.44;;;8.47;59.87
54592;BME280;40488;48.558;18.150;2023-03-19T07:02:47;99846.28;;;8.68;59.65
54592;BME280;40488;48.558;18.150;2023-03-19T07:05:17;99840.53;;;8.90;58.47
54592;BME280;40488;48.558;18.150;2023-03-19T07:07:45;99839.84;;;9.06;57.87
54592;BME280;40488;48.558;18.150;2023-03-19T07:12:42;99840.78;;;9.22;55.89
54592;BME280;40488;48.558;18.150;2023-03-19T07:15:11;99840.00;;;9.33;55.47
54592;BME280;40488;48.558;18.150;2023-03-19T07:17:40;99838.47;;;9.57;55.50
54592;BME280;40488;48.558;18.150;2023-03-19T07:20:10;99837.69;;;9.74;55.03
54592;BME280;40488;48.558;18.150;2023-03-19T07:22:40;99840.38;;;9.91;54.68
54592;BME280;40488;48.558;18.150;2023-03-19T07:25:09;99848.91;;;10.05;53.56
54592;BME280;40488;48.558;18.150;2023-03-19T07:27:37;99845.59;;;10.18;52.94
54592;BME280;40488;48.558;18.150;2023-03-19T07:30:06;99845.59;;;10.27;52.27
54592;BME280;40488;48.558;18.150;2023-03-19T07:32:35;99837.16;;;10.43;52.31
54592;BME280;40488;48.558;18.150;2023-03-19T07:35:05;99842.31;;;10.64;51.65
54592;BME280;40488;48.558;18.150;2023-03-19T07:37:33;99838.91;;;10.74;51.06
54592;BME280;40488;48.558;18.150;2023-03-19T07:40:04;99844.88;;;10.84;50.96
54592;BME280;40488;48.558;18.150;2023-03-19T07:42:33;99845.72;;;11.00;50.96
54592;BME280;40488;48.558;18.150;2023-03-19T07:45:02;99844.88;;;11.10;50.17
54592;BME280;40488;48.558;18.150;2023-03-19T07:47:31;99844.00;;;11.23;50.15
54592;BME280;40488;48.558;18.150;2023-03-19T07:49:59;99841.44;;;11.30;49.69
54592;BME280;40488;48.558;18.150;2023-03-19T07:52:28;99843.97;;;11.47;49.79
54592;BME280;40488;48.558;18.150;2023-03-19T07:54:56;99832.00;;;11.64;48.98
54592;BME280;40488;48.558;18.150;2023-03-19T07:57:26;99843.09;;;11.77;48.67
54592;BME280;40488;48.558;18.150;2023-03-19T07:59:55;99845.63;;;11.78;48.31
54592;BME280;40488;48.558;18.150;2023-03-19T08:02:23;99842.25;;;11.82;47.91
54592;BME280;40488;48.558;18.150;2023-03-19T08:04:52;99842.16;;;12.00;47.89
54592;BME280;40488;48.558;18.150;2023-03-19T08:07:21;99842.09;;;12.16;47.82
54592;BME280;40488;48.558;18.150;2023-03-19T08:09:50;99841.19;;;12.30;46.99
54592;BME280;40488;48.558;18.150;2023-03-19T08:12:19;99835.09;;;12.51;47.00
54592;BME280;40488;48.558;18.150;2023-03-19T08:14:49;99829.91;;;12.60;46.42
54592;BME280;40488;48.558;18.150;2023-03-19T08:17:17;99836.72;;;12.64;46.12
54592;BME280;40488;48.558;18.150;2023-03-19T08:19:47;99826.38;;;12.76;45.84
54592;BME280;40488;48.558;18.150;2023-03-19T08:22:15;99822.78;;;12.98;45.41
54592;BME280;40488;48.558;18.150;2023-03-19T08:24:43;99822.75;;;13.04;45.18
54592;BME280;40488;48.558;18.150;2023-03-19T08:27:12;99821.84;;;13.14;44.52
54592;BME280;40488;48.558;18.150;2023-03-19T08:29:41;99829.47;;;13.20;44.43
54592;BME280;40488;48.558;18.150;2023-03-19T08:32:11;99830.28;;;13.25;43.38
54592;BME280;40488;48.558;18.150;2023-03-19T08:34:40;99830.19;;;13.34;43.63
54592;BME280;40488;48.558;18.150;2023-03-19T08:37:08;99823.19;;;13.50;43.95
54592;BME280;40488;48.558;18.150;2023-03-19T08:39:36;99811.84;;;13.71;44.07
54592;BME280;40488;48.558;18.150;2023-03-19T08:42:05;99820.97;;;13.96;43.70
54592;BME280;40488;48.558;18.150;2023-03-19T08:44:33;99821.56;;;14.16;43.50
54592;BME280;40488;48.558;18.150;2023-03-19T08:47:02;99819.78;;;14.21;42.83
54592;BME280;40488;48.558;18.150;2023-03-19T08:49:33;99819.66;;;14.33;43.00
54592;BME280;40488;48.558;18.150;2023-03-19T08:52:02;99823.75;;;14.46;42.87
54592;BME280;40488;48.558;18.150;2023-03-19T08:54:30;99822.84;;;14.50;42.38
54592;BME280;40488;48.558;18.150;2023-03-19T08:56:58;99821.09;;;14.52;42.00
54592;BME280;40488;48.558;18.150;2023-03-19T08:59:27;99819.31;;;14.57;40.54
54592;BME280;40488;48.558;18.150;2023-03-19T09:01:59;99823.69;;;14.49;40.46
54592;BME280;40488;48.558;18.150;2023-03-19T09:04:28;99819.66;;;14.33;40.34
54592;BME280;40488;48.558;18.150;2023-03-19T09:06:58;99823.03;;;14.35;40.19
54592;BME280;40488;48.558;18.150;2023-03-19T09:09:26;99817.09;;;14.35;39.99
54592;BME280;40488;48.558;18.150;2023-03-19T09:11:55;99821.19;;;14.46;39.92
54592;BME280;40488;48.558;18.150;2023-03-19T09:14:24;99806.28;;;14.69;40.05
54592;BME280;40488;48.558;18.150;2023-03-19T09:16:53;99804.50;;;14.74;39.32
54592;BME280;40488;48.558;18.150;2023-03-19T09:19:21;99803.38;;;14.91;39.25
54592;BME280;40488;48.558;18.150;2023-03-19T09:21:50;99800.50;;;15.09;39.29
54592;BME280;40488;48.558;18.150;2023-03-19T09:24:20;99803.91;;;15.11;39.76
54592;BME280;40488;48.558;18.150;2023-03-19T09:26:49;99801.97;;;15.23;39.92
54592;BME280;40488;48.558;18.150;2023-03-19T09:29:17;99801.66;;;15.40;38.98
54592;BME280;40488;48.558;18.150;2023-03-19T09:31:49;99797.72;;;15.21;38.01
54592;BME280;40488;48.558;18.150;2023-03-19T09:34:18;99798.38;;;15.32;38.54
54592;BME280;40488;48.558;18.150;2023-03-19T09:36:46;99798.03;;;15.52;38.66
54592;BME280;40488;48.558;18.150;2023-03-19T09:39:15;99795.63;;;15.41;37.77
54592;BME280;40488;48.558;18.150;2023-03-19T09:41:48;99787.47;;;15.18;37.42
54592;BME280;40488;48.558;18.150;2023-03-19T09:44:26;99794.59;;;15.04;37.03
54592;BME280;40488;48.558;18.150;2023-03-19T09:46:57;99796.38;;;14.99;36.99
54592;BME280;40488;48.558;18.150;2023-03-19T09:49:28;99790.31;;;15.04;36.96
54592;BME280;40488;48.558;18.150;2023-03-19T09:52:00;99787.47;;;15.18;36.84
54592;BME280;40488;48.558;18.150;2023-03-19T09:54:38;99789.78;;;15.33;36.11
54592;BME280;40488;48.558;18.150;2023-03-19T09:57:11;99793.09;;;15.39;35.65
54592;BME280;40488;48.558;18.150;2023-03-19T09:59:41;99798.13;;;15.46;35.61
54592;BME280;40488;48.558;18.150;2023-03-19T10:02:18;99793.63;;;15.58;35.12
54592;BME280;40488;48.558;18.150;2023-03-19T10:04:53;99799.00;;;15.46;34.98
54592;BME280;40488;48.558;18.150;2023-03-19T10:07:33;99799.81;;;15.48;35.17
54592;BME280;40488;48.558;18.150;2023-03-19T10:10:09;99789.38;;;15.57;34.81
54592;BME280;40488;48.558;18.150;2023-03-19T10:12:51;99785.47;;;15.81;35.11
54592;BME280;40488;48.558;18.150;2023-03-19T10:15:24;99780.88;;;15.93;34.44
54592;BME280;40488;48.558;18.150;2023-03-19T10:17:57;99773.09;;;15.96;34.39
54592;BME280;40488;48.558;18.150;2023-03-19T10:20:29;99784.59;;;15.80;35.21
54592;BME280;40488;48.558;18.150;2023-03-19T10:23:00;99776.16;;;15.74;35.99
54592;BME280;40488;48.558;18.150;2023-03-19T10:25:31;99772.56;;;15.82;35.88
54592;BME280;40488;48.558;18.150;2023-03-19T10:28:06;99768.13;;;15.89;36.33
54592;BME280;40488;48.558;18.150;2023-03-19T10:30:39;99753.41;;;15.95;35.64
54592;BME280;40488;48.558;18.150;2023-03-19T10:33:12;99762.19;;;15.85;35.72
54592;BME280;40488;48.558;18.150;2023-03-19T10:35:45;99745.03;;;15.84;35.34
54592;BME280;40488;48.558;18.150;2023-03-19T10:38:18;99747.38;;;15.96;35.11
54592;BME280;40488;48.558;18.150;2023-03-19T10:40:50;99739.09;;;16.21;35.14
54592;BME280;40488;48.558;18.150;2023-03-19T10:43:24;99745.28;;;16.52;35.48
54592;BME280;40488;48.558;18.150;2023-03-19T10:45:53;99737.63;;;16.83;35.47
54592;BME280;40488;48.558;18.150;2023-03-19T10:48:21;99742.25;;;17.04;35.08
54592;BME280;40488;48.558;18.150;2023-03-19T10:50:55;99742.09;;;17.10;34.55
54592;BME280;40488;48.558;18.150;2023-03-19T10:53:30;99733.34;;;17.15;33.97
54592;BME280;40488;48.558;18.150;2023-03-19T10:56:00;99732.97;;;16.97;33.07
54592;BME280;40488;48.558;18.150;2023-03-19T10:58:32;99720.38;;;16.85;33.20
54592;BME280;40488;48.558;18.150;2023-03-19T11:01:02;99716.56;;;16.99;33.39
54592;BME280;40488;48.558;18.150;2023-03-19T11:03:33;99717.97;;;16.79;33.38
54592;BME280;40488;48.558;18.150;2023-03-19T11:06:15;99718.66;;;16.85;33.67
54592;BME280;40488;48.558;18.150;2023-03-19T11:08:50;99713.50;;;16.85;33.97
54592;BME280;40488;48.558;18.150;2023-03-19T11:11:30;99707.03;;;17.03;34.21
54592;BME280;40488;48.558;18.150;2023-03-19T11:14:08;99708.63;;;17.08;34.18
54592;BME280;40488;48.558;18.150;2023-03-19T11:19:18;99696.16;;;17.55;33.81
54592;BME280;40488;48.558;18.150;2023-03-19T11:24:26;99694.53;;;17.51;33.16
54592;BME280;40488;48.558;18.150;2023-03-19T11:26:55;99694.78;;;17.41;32.95
54592;BME280;40488;48.558;18.150;2023-03-19T11:29:26;99693.88;;;17.42;32.63
54592;BME280;40488;48.558;18.150;2023-03-19T11:31:58;99693.81;;;17.46;32.58
54592;BME280;40488;48.558;18.150;2023-03-19T11:34:48;99692.81;;;17.50;32.41
54592;BME280;40488;48.558;18.150;2023-03-19T11:37:21;99688.59;;;17.78;33.27
54592;BME280;40488;48.558;18.150;2023-03-19T11:39:57;99685.97;;;18.07;33.25
54592;BME280;40488;48.558;18.150;2023-03-19T11:45:20;99684.06;;;18.12;33.35
54592;BME280;40488;48.558;18.150;2023-03-19T11:47:54;99676.44;;;18.09;33.39
54592;BME280;40488;48.558;18.150;2023-03-19T11:50:26;99673.09;;;17.78;32.85
54592;BME280;40488;48.558;18.150;2023-03-19T11:53:00;99668.22;;;17.38;32.73
54592;BME280;40488;48.558;18.150;2023-03-19T11:55:32;99662.97;;;17.41;32.88
54592;BME280;40488;48.558;18.150;2023-03-19T11:58:20;99657.66;;;17.16;33.42
54592;BME280;40488;48.558;18.150;2023-03-19T12:00:54;99663.38;;;17.27;33.72
54592;BME280;40488;48.558;18.150;2023-03-19T12:06:13;99666.84;;;16.94;34.00
54592;BME280;40488;48.558;18.150;2023-03-19T12:08:47;99656.31;;;16.71;33.89
54592;BME280;40488;48.558;18.150;2023-03-19T12:11:19;99654.78;;;16.64;34.77
54592;BME280;40488;48.558;18.150;2023-03-19T12:13:55;99664.53;;;16.53;35.08
54592;BME280;40488;48.558;18.150;2023-03-19T12:16:31;99662.09;;;16.45;35.32
54592;BME280;40488;48.558;18.150;2023-03-19T12:19:25;99657.53;;;16.56;35.76
54592;BME280;40488;48.558;18.150;2023-03-19T12:22:01;99660.09;;;16.58;36.10
54592;BME280;40488;48.558;18.150;2023-03-19T12:24:35;99650.88;;;16.46;35.77
54592;BME280;40488;48.558;18.150;2023-03-19T12:27:11;99647.88;;;16.31;36.84
54592;BME280;40488;48.558;18.150;2023-03-19T12:29:46;99658.31;;;16.25;37.39
54592;BME280;40488;48.558;18.150;2023-03-19T12:32:23;99654.69;;;16.32;36.98
54592;BME280;40488;48.558;18.150;2023-03-19T12:34:56;99658.47;;;16.19;37.11
54592;BME280;40488;48.558;18.150;2023-03-19T12:37:27;99653.41;;;16.14;37.12
54592;BME280;40488;48.558;18.150;2023-03-19T12:40:02;99657.13;;;16.02;36.81
54592;BME280;40488;48.558;18.150;2023-03-19T12:42:35;99658.00;;;16.01;36.96
54592;BME280;40488;48.558;18.150;2023-03-19T12:45:07;99650.22;;;16.04;36.96
54592;BME280;40488;48.558;18.150;2023-03-19T12:47:42;99648.16;;;16.19;36.49
54592;BME280;40488;48.558;18.150;2023-03-19T12:50:13;99647.69;;;16.37;36.33
54592;BME280;40488;48.558;18.150;2023-03-19T12:52:45;99651.63;;;16.53;36.03
54592;BME280;40488;48.558;18.150;2023-03-19T12:55:16;99648.41;;;16.43;35.61
54592;BME280;40488;48.558;18.150;2023-03-19T12:57:47;99642.66;;;16.32;36.00
54592;BME280;40488;48.558;18.150;2023-03-19T13:00:20;99636.09;;;16.21;36.09
54592;BME280;40488;48.558;18.150;2023-03-19T13:02:51;99628.31;;;16.22;36.62
54592;BME280;40488;48.558;18.150;2023-03-19T13:05:25;99638.63;;;16.22;37.12
54592;BME280;40488;48.558;18.150;2023-03-19T13:07:57;99632.63;;;16.22;36.97
54592;BME280;40488;48.558;18.150;2023-03-19T13:10:29;99629.22;;;16.20;36.77
54592;BME280;40488;48.558;18.150;2023-03-19T13:12:58;99627.50;;;16.22;36.21
54592;BME280;40488;48.558;18.150;2023-03-19T13:15:29;99630.00;;;16.23;36.41
54592;BME280;40488;48.558;18.150;2023-03-19T13:18:04;99635.97;;;16.25;36.56
54592;BME280;40488;48.558;18.150;2023-03-19T13:20:44;99628.38;;;16.21;36.87
54592;BME280;40488;48.558;18.150;2023-03-19T13:23:19;99627.69;;;16.13;36.83
54592;BME280;40488;48.558;18.150;2023-03-19T13:25:49;99619.44;;;15.98;36.87
54592;BME280;40488;48.558;18.150;2023-03-19T13:28:24;99619.66;;;15.89;36.85
54592;BME280;40488;48.558;18.150;2023-03-19T13:30:57;99614.81;;;15.77;36.99